Terminal Aerodrome Forecast
Issued by NWS Lake Charles, LA

Home | Current Version | Previous Version | Text Only | Print | Product List | Glossary On
Versions: 1 2 3 4 5 6 7 8 9 10 11 12 13 14
000
FTUS44 KLCH 271720
TAFARA
TAF
KARA 271720Z 2718/2818 VRB05KT P6SM SKC
     FM280000 15007KT P6SM SKC
     FM280600 15010KT P6SM BKN015
     FM281500 17013KT P6SM BKN020=

USA.gov is the U.S. government's official web portal to all federal, state and local government web resources and services.